Aviation Digital Data Service (ADDS)

Output produced by METARs form (1417 UTC 15 November 2018)
found at http://aviationweather.gov/metar/data/
 
METAR text: UDYZ 151400Z 00000KT 6000 SCT046 09/06 Q1014 R09/000070 NOSIG
Conditions at: UDYZ (ZVARTNOTS , AM) observed 1400 UTC 15 November 2018
Temperature: 9.0°C (48°F)
Dewpoint: 6.0°C (43°F) [RH = 81%]
Pressure (altimeter): 29.94 inches Hg (1014.0 mb)
Winds: calm
Visibility: 4 miles ( 6 km)
Ceiling: at least 12,000 feet AGL
Clouds: scattered clouds at 4600 feet AGL
Weather: no significant weather observed at this time

METAR text: UDYZ 151330Z 17001KT 6000 SCT046 10/06 Q1014 R09/000070 NOSIG
Conditions at: UDYZ (ZVARTNOTS , AM) observed 1330 UTC 15 November 2018
Temperature: 10.0°C (50°F)
Dewpoint: 6.0°C (43°F) [RH = 76%]
Pressure (altimeter): 29.94 inches Hg (1014.0 mb)
Winds: from the S (170 degrees) at 1 MPH (1 knots; 0.5 m/s)
Visibility: 4 miles ( 6 km)
Ceiling: at least 12,000 feet AGL
Clouds: scattered clouds at 4600 feet AGL
Weather: no significant weather observed at this time

Forecast for: UDYZ (ZVARTNOTS , AM)
Text: TAF UDYZ 151105Z 1512/1612 VRB06KT 9999 SCT040
Forecast period: 1200 UTC 15 November 2018 to 1200 UTC 16 November 2018
Forecast type: FROM: standard forecast or significant change
Winds: variable direction winds at 7 MPH (6 knots; 3.1 m/s)
Visibility: 6 or more miles 10+ km)
Ceiling: at least 12,000 feet AGL
Clouds: scattered clouds at 4000 feet AGL
Weather: no significant weather forecast for this period
Text: TEMPO 1513/1519 3500 -RA BR BKN020
Forecast period: 1300 to 1900 UTC 15 November 2018
Forecast type: TEMPORARY: The following changes expected for less than half the time period
Visibility: 2.17 miles (3.49 km)
Ceiling: 2000 feet AGL
Clouds: broken clouds at 2000 feet AGL
Weather: -RA BR  (light rain, mist)